createdAt,value
2023-01-11T00:17:46.775Z,8
2023-01-11T00:27:47.027Z,8.2
2023-01-11T00:37:47.808Z,8.2
2023-01-11T00:47:48.266Z,8.3
2023-01-11T00:57:48.577Z,8.3
2023-01-11T01:07:49.565Z,8.4
2023-01-11T01:17:49.756Z,8.6
2023-01-11T01:27:50.515Z,8.6
2023-01-11T01:37:51.364Z,8.9
2023-01-11T01:47:52.409Z,8.9
2023-01-11T01:57:52.979Z,8.9
2023-01-11T02:07:53.877Z,8.9
2023-01-11T02:17:54.684Z,8.9
2023-01-11T02:27:55.738Z,8.8
2023-01-11T02:47:56.744Z,8.7
2023-01-11T02:57:57.196Z,8.5
2023-01-11T03:07:57.887Z,8.6
2023-01-11T03:17:58.453Z,8.6
2023-01-11T03:27:58.867Z,8.5
2023-01-11T03:37:59.739Z,8.5
2023-01-11T03:48:00.523Z,8.6
2023-01-11T03:58:01.192Z,8.6
2023-01-11T04:08:01.398Z,8.6
2023-01-11T04:18:02.478Z,8.7
2023-01-11T04:28:02.672Z,8.8
2023-01-11T04:38:03.617Z,8.8
2023-01-11T04:48:04.527Z,8.9
2023-01-11T04:58:05.513Z,8.9
2023-01-11T05:08:06.134Z,9
2023-01-11T05:18:06.350Z,9
2023-01-11T05:28:06.710Z,9
2023-01-11T05:38:07.285Z,9.1
2023-01-11T05:48:07.776Z,9.2
2023-01-11T05:58:08.809Z,9.3
2023-01-11T06:18:10.017Z,9.9
2023-01-11T06:28:10.524Z,10.1
2023-01-11T06:38:11.362Z,10.2
2023-01-11T06:48:12.136Z,10.3
2023-01-11T06:58:12.395Z,10.3
2023-01-11T07:08:12.967Z,10.4
2023-01-11T07:18:13.511Z,10.4
2023-01-11T07:28:14.373Z,10.4
2023-01-11T07:38:14.986Z,10.5
2023-01-11T07:48:23.294Z,10.6
2023-01-11T07:58:23.615Z,10.6
2023-01-11T08:08:24.427Z,10.5
2023-01-11T08:28:25.523Z,10.6
2023-01-11T08:38:26.449Z,10.7
2023-01-11T08:48:27.005Z,10.8
2023-01-11T08:58:28.037Z,10.7
2023-01-11T09:08:29.001Z,10.8
2023-01-11T09:18:29.655Z,10.7
2023-01-11T09:28:30.723Z,10.5
2023-01-11T09:38:31.767Z,10.2
2023-01-11T09:48:32.200Z,10.1
2023-01-11T09:58:32.493Z,10
2023-01-11T10:18:45.094Z,9.9
2023-01-11T10:28:33.827Z,9.9
2023-01-11T10:38:34.122Z,9.9
2023-01-11T10:48:34.459Z,9.9
2023-01-11T10:58:35.413Z,9.9
2023-01-11T11:08:35.533Z,9.9
2023-01-11T11:18:36.169Z,10
2023-01-11T11:28:36.830Z,9.9
2023-01-11T11:38:37.091Z,9.9
2023-01-11T11:48:38.050Z,10.1
2023-01-11T11:58:38.833Z,10.5
2023-01-11T12:08:39.535Z,10.6
2023-01-11T12:28:41.164Z,10.5
2023-01-11T12:38:41.767Z,10.6
2023-01-11T12:48:42.360Z,10.6
2023-01-11T13:28:44.684Z,10.3
2023-01-11T13:38:45.077Z,10.7
2023-01-11T13:48:45.996Z,10.8
2023-01-11T13:58:46.425Z,10.4
2023-01-11T14:18:47.724Z,10.1
2023-01-11T14:28:48.335Z,10.1
2023-01-11T14:38:49.132Z,10.1
2023-01-11T14:48:49.967Z,10.1
2023-01-11T14:58:50.039Z,10
2023-01-11T15:58:54.708Z,9.6
2023-01-11T16:08:55.277Z,9.4
2023-01-11T16:18:55.895Z,9.3
2023-01-11T16:28:56.272Z,9.3
2023-01-11T16:38:57.341Z,9.2
2023-01-11T16:48:58.325Z,9.2
2023-01-11T16:58:58.569Z,9.2
2023-01-11T17:08:59.097Z,9.3
2023-01-11T17:18:59.659Z,9.4
2023-01-11T17:29:00.707Z,9.2
2023-01-11T17:39:01.189Z,9.2
2023-01-11T17:49:02.035Z,9.1
2023-01-11T18:09:03.000Z,9.1
2023-01-11T18:19:03.503Z,9.1
2023-01-11T18:29:04.092Z,9.1
2023-01-11T18:39:05.088Z,9.1
2023-01-11T18:49:06.045Z,9.1
2023-01-11T18:59:06.239Z,9
2023-01-11T19:09:06.556Z,8.9
2023-01-11T19:19:06.758Z,8.8
2023-01-11T19:29:07.727Z,8.8
2023-01-11T19:39:08.179Z,8.8
2023-01-11T19:59:08.777Z,8.9
2023-01-11T20:19:09.583Z,8.8
2023-01-11T20:29:09.905Z,8.9
2023-01-11T20:39:10.897Z,8.9
2023-01-11T21:19:12.406Z,9.2
2023-01-11T21:49:14.439Z,8.5
2023-01-11T22:19:16.005Z,8.5
2023-01-11T22:29:16.999Z,8.3
2023-01-11T23:29:19.335Z,8.3
2023-01-11T23:39:20.270Z,8.1
2023-01-11T23:49:20.994Z,8.1
2023-01-11T23:59:21.366Z,8.1
